createdAt,value
2017-09-30T00:02:03.299Z,64.8
2017-09-30T00:07:04.003Z,65.5
2017-09-30T00:12:03.921Z,65.5
2017-09-30T00:17:03.645Z,65.5
2017-09-30T00:22:03.704Z,65.5
2017-09-30T00:27:03.383Z,65.4
2017-09-30T00:32:03.064Z,65.4
2017-09-30T00:37:03.469Z,65.4
2017-09-30T00:42:03.238Z,65.3
2017-09-30T00:47:04.015Z,65.1
2017-09-30T00:52:03.590Z,65.1
2017-09-30T00:57:03.337Z,65.1
2017-09-30T01:02:03.107Z,65.3
2017-09-30T01:07:03.914Z,65.3
2017-09-30T01:12:03.736Z,65.2
2017-09-30T01:17:03.656Z,65.2
2017-09-30T01:22:03.241Z,65.3
2017-09-30T01:27:03.899Z,65.5
2017-09-30T01:32:03.867Z,65.3
2017-09-30T01:37:03.320Z,65.2
2017-09-30T01:42:03.486Z,65.5
2017-09-30T01:47:03.329Z,65.6
2017-09-30T01:52:03.151Z,65.7
2017-09-30T01:57:03.832Z,65.6
2017-09-30T02:02:03.714Z,65.6
2017-09-30T02:07:03.472Z,65.5
2017-09-30T02:12:03.619Z,65.4
2017-09-30T02:17:03.540Z,65.3
2017-09-30T02:22:03.143Z,65.3
2017-09-30T02:27:03.715Z,65.2
2017-09-30T02:32:03.555Z,65.0
2017-09-30T02:37:03.202Z,64.8
2017-09-30T02:42:03.380Z,64.7
2017-09-30T02:47:04.058Z,64.7
2017-09-30T02:52:03.057Z,64.5
2017-09-30T02:57:03.400Z,64.5
2017-09-30T03:02:04.194Z,64.4
2017-09-30T03:07:03.265Z,64.4
2017-09-30T03:12:03.666Z,64.3
2017-09-30T03:17:04.256Z,64.4
2017-09-30T03:22:03.406Z,64.4
2017-09-30T03:27:03.706Z,64.3
2017-09-30T03:32:03.128Z,64.4
2017-09-30T03:37:03.436Z,64.4
2017-09-30T03:42:03.660Z,64.6
2017-09-30T03:47:03.184Z,64.5
2017-09-30T03:52:03.432Z,64.5
2017-09-30T03:57:03.693Z,64.5
2017-09-30T04:02:03.359Z,64.2
2017-09-30T04:07:03.408Z,64.1
2017-09-30T04:12:03.878Z,64.1
2017-09-30T04:17:03.341Z,64.0
2017-09-30T04:22:03.580Z,64.0
2017-09-30T04:27:03.922Z,64.0
2017-09-30T04:32:03.247Z,63.9
2017-09-30T04:37:03.605Z,64.0
2017-09-30T04:42:03.787Z,63.8
2017-09-30T04:47:03.483Z,63.8
2017-09-30T04:52:03.434Z,63.8
2017-09-30T04:57:03.769Z,63.8
2017-09-30T05:02:22.205Z,64.0
2017-09-30T05:07:03.670Z,63.8
2017-09-30T05:12:03.340Z,63.8
2017-09-30T05:17:22.243Z,63.7
2017-09-30T05:22:03.102Z,63.8
2017-09-30T05:27:03.935Z,63.8
2017-09-30T05:32:24.041Z,64.0
2017-09-30T05:37:03.182Z,63.9
2017-09-30T05:42:03.643Z,63.9
2017-09-30T05:47:32.518Z,63.9
2017-09-30T05:52:03.113Z,64.0
2017-09-30T05:57:03.610Z,63.7
2017-09-30T06:02:27.082Z,63.7
2017-09-30T06:07:03.587Z,63.8
2017-09-30T06:12:03.668Z,63.7
2017-09-30T06:17:28.950Z,63.6
2017-09-30T06:22:03.573Z,63.6
2017-09-30T06:27:03.902Z,63.6
2017-09-30T06:32:20.723Z,63.7
2017-09-30T06:37:03.836Z,63.7
2017-09-30T06:42:03.164Z,63.6
2017-09-30T06:47:27.974Z,63.6
2017-09-30T06:52:03.079Z,63.4
2017-09-30T06:57:03.559Z,63.4
2017-09-30T07:02:26.693Z,63.4
2017-09-30T07:07:03.357Z,63.1
2017-09-30T07:12:03.882Z,62.7
2017-09-30T07:17:24.291Z,61.8
2017-09-30T07:22:03.377Z,61.6
2017-09-30T07:27:03.755Z,61.6
2017-09-30T07:32:27.797Z,61.3
2017-09-30T07:37:03.095Z,60.9
2017-09-30T07:42:03.604Z,60.5
2017-09-30T07:47:23.437Z,60.3
2017-09-30T07:52:03.784Z,60.4
2017-09-30T07:57:03.174Z,61.4
2017-09-30T08:02:36.135Z,61.9
2017-09-30T08:07:03.733Z,62.3
2017-09-30T08:12:03.292Z,62.3
2017-09-30T08:17:25.799Z,62.8
2017-09-30T08:22:03.369Z,63.5
2017-09-30T08:27:03.832Z,63.2
2017-09-30T08:32:23.831Z,63.1
2017-09-30T08:37:03.509Z,63.1
2017-09-30T08:42:03.919Z,63.4
2017-09-30T08:47:24.337Z,63.4
2017-09-30T08:52:03.677Z,63.5
2017-09-30T08:57:03.172Z,63.5
2017-09-30T09:02:23.765Z,63.9
2017-09-30T09:07:03.188Z,64.4
2017-09-30T09:12:03.796Z,64.4
2017-09-30T09:17:25.747Z,64.6
2017-09-30T09:22:03.693Z,64.8
2017-09-30T09:27:03.285Z,65.0
2017-09-30T09:32:17.138Z,65.0
2017-09-30T09:37:03.080Z,65.0
2017-09-30T09:42:03.637Z,64.7
2017-09-30T09:47:23.677Z,65.0
2017-09-30T09:52:03.531Z,65.0
2017-09-30T09:57:03.372Z,64.8
2017-09-30T10:02:23.071Z,65.3
2017-09-30T10:07:03.263Z,65.3
2017-09-30T10:12:04.383Z,65.9
2017-09-30T10:17:21.482Z,65.9
2017-09-30T10:22:03.318Z,67.2
2017-09-30T10:27:03.727Z,66.6
2017-09-30T10:32:23.968Z,67.4
2017-09-30T10:37:03.295Z,67.0
2017-09-30T10:42:03.638Z,66.8
2017-09-30T10:47:20.830Z,66.0
2017-09-30T10:52:03.151Z,66.2
2017-09-30T10:57:03.587Z,65.1
2017-09-30T11:02:32.357Z,65.6
2017-09-30T11:07:03.933Z,65.8
2017-09-30T11:12:03.729Z,65.6
2017-09-30T11:17:25.311Z,66.2
2017-09-30T11:22:03.647Z,66.1
2017-09-30T11:27:03.224Z,66.1
2017-09-30T11:32:27.976Z,65.7
2017-09-30T11:37:03.253Z,63.8
2017-09-30T11:42:03.687Z,63.8
2017-09-30T11:47:21.206Z,65.3
2017-09-30T11:52:03.561Z,65.1
2017-09-30T11:57:03.200Z,64.0
2017-09-30T12:02:21.562Z,64.0
2017-09-30T12:07:03.438Z,62.7
2017-09-30T12:12:03.033Z,62.7
2017-09-30T12:17:27.781Z,63.4
2017-09-30T12:22:03.327Z,63.6
2017-09-30T12:27:03.717Z,63.3
2017-09-30T12:32:22.875Z,62.9
2017-09-30T12:37:03.401Z,62.4
2017-09-30T12:42:03.729Z,62.1
2017-09-30T12:47:24.858Z,62.5
2017-09-30T12:52:03.703Z,62.8
2017-09-30T12:57:03.169Z,61.3
2017-09-30T13:02:24.025Z,61.4
2017-09-30T13:07:03.311Z,62.2
2017-09-30T13:12:03.806Z,62.3
2017-09-30T13:17:33.360Z,62.8
2017-09-30T13:22:03.870Z,63.2
2017-09-30T13:27:03.372Z,62.4
2017-09-30T13:32:24.947Z,62.4
2017-09-30T13:37:03.282Z,62.6
2017-09-30T13:42:03.705Z,62.6
2017-09-30T13:47:23.079Z,62.4
2017-09-30T13:52:03.623Z,63.8
2017-09-30T13:57:03.197Z,63.7
2017-09-30T14:02:24.090Z,64.7
2017-09-30T14:07:03.356Z,64.8
2017-09-30T14:12:03.727Z,64.5
2017-09-30T14:17:22.023Z,64.7
2017-09-30T14:22:03.792Z,64.7
2017-09-30T14:27:03.258Z,64.8
2017-09-30T14:32:28.184Z,65.0
2017-09-30T14:37:03.161Z,65.0
2017-09-30T14:42:03.684Z,65.0
2017-09-30T14:47:27.963Z,65.2
2017-09-30T14:52:03.612Z,65.1
2017-09-30T14:57:03.041Z,65.3
2017-09-30T15:02:36.693Z,65.4
2017-09-30T15:07:03.323Z,65.3
2017-09-30T15:12:03.731Z,65.3
2017-09-30T15:17:26.629Z,65.2
2017-09-30T15:22:03.372Z,65.2
2017-09-30T15:27:03.711Z,70.1
2017-09-30T15:32:27.615Z,72.0
2017-09-30T15:37:03.731Z,71.7
2017-09-30T15:42:03.114Z,72.1
2017-09-30T15:47:34.074Z,72.2
2017-09-30T15:52:03.044Z,72.3
2017-09-30T15:57:03.598Z,72.3
2017-09-30T16:02:21.333Z,72.2
2017-09-30T16:07:03.642Z,72.2
2017-09-30T16:12:03.158Z,72.2
2017-09-30T16:17:28.919Z,71.9
2017-09-30T16:22:03.200Z,71.9
2017-09-30T16:27:04.155Z,72.1
2017-09-30T16:32:11.889Z,71.8
2017-09-30T16:37:03.891Z,71.8
2017-09-30T16:42:03.556Z,71.7
2017-09-30T16:47:28.086Z,71.6
2017-09-30T16:52:03.043Z,71.7
2017-09-30T16:57:03.876Z,71.7
2017-09-30T17:02:27.772Z,71.7
2017-09-30T17:07:03.594Z,71.6
2017-09-30T17:12:03.366Z,71.7
2017-09-30T17:17:23.624Z,71.5
2017-09-30T17:22:03.440Z,71.3
2017-09-30T17:27:03.782Z,70.3
2017-09-30T17:32:06.280Z,70.3
2017-09-30T17:37:03.603Z,70.0
2017-09-30T17:42:03.871Z,70.0
2017-09-30T17:47:03.252Z,69.7
2017-09-30T17:52:03.588Z,69.7
2017-09-30T17:57:03.853Z,69.6
2017-09-30T18:02:03.343Z,69.4
2017-09-30T18:07:03.660Z,69.4
2017-09-30T18:12:03.087Z,69.4
2017-09-30T18:17:03.502Z,67.7
2017-09-30T18:22:03.799Z,67.7
2017-09-30T18:27:03.225Z,66.7
2017-09-30T18:32:03.512Z,65.8
2017-09-30T18:37:03.762Z,64.9
2017-09-30T18:42:03.063Z,64.9
2017-09-30T18:47:03.499Z,64.7
2017-09-30T18:52:03.821Z,64.7
2017-09-30T18:57:03.041Z,64.6
2017-09-30T19:02:03.454Z,64.4
2017-09-30T19:07:03.768Z,64.2
2017-09-30T19:12:03.318Z,64.0
2017-09-30T19:17:03.626Z,64.2
2017-09-30T19:22:03.903Z,64.2
2017-09-30T19:27:03.284Z,64.0
2017-09-30T19:32:03.527Z,63.8
2017-09-30T19:37:03.813Z,63.7
2017-09-30T19:42:03.201Z,63.8
2017-09-30T19:47:03.472Z,63.8
2017-09-30T19:52:03.782Z,63.7
2017-09-30T19:57:03.079Z,63.7
2017-09-30T20:02:03.494Z,63.8
2017-09-30T20:07:03.801Z,64.1
2017-09-30T20:12:03.329Z,64.2
2017-09-30T20:17:03.685Z,63.7
2017-09-30T20:22:03.024Z,63.6
2017-09-30T20:27:03.390Z,63.5
2017-09-30T20:32:03.664Z,63.5
2017-09-30T20:37:03.946Z,63.4
2017-09-30T20:42:03.338Z,63.4
2017-09-30T20:47:03.737Z,63.6
2017-09-30T20:52:03.050Z,63.6
2017-09-30T20:57:03.354Z,63.4
2017-09-30T21:02:03.688Z,63.5
2017-09-30T21:07:03.256Z,63.4
2017-09-30T21:12:03.523Z,63.5
2017-09-30T21:17:03.859Z,63.3
2017-09-30T21:22:03.286Z,63.5
2017-09-30T21:27:03.556Z,63.4
2017-09-30T21:32:03.813Z,63.4
2017-09-30T21:37:03.151Z,63.4
2017-09-30T21:42:03.383Z,63.3
2017-09-30T21:47:03.692Z,63.3
2017-09-30T21:52:03.037Z,63.4
2017-09-30T21:57:03.332Z,63.4
2017-09-30T22:02:03.750Z,63.5
2017-09-30T22:07:03.706Z,63.4
2017-09-30T22:12:03.932Z,63.4
2017-09-30T22:22:04.056Z,63.4
2017-09-30T22:27:03.312Z,63.1
2017-09-30T22:32:03.117Z,63.1
2017-09-30T22:37:03.345Z,63.3
2017-09-30T22:42:03.919Z,63.2
2017-09-30T22:47:03.603Z,63.2
2017-09-30T22:52:03.018Z,63.4
2017-09-30T22:57:03.668Z,63.4
2017-09-30T23:02:03.267Z,63.2
2017-09-30T23:07:03.713Z,63.2
2017-09-30T23:12:03.522Z,63.2
2017-09-30T23:17:03.507Z,63.2
2017-09-30T23:22:03.772Z,63.3
2017-09-30T23:27:03.718Z,63.2
2017-09-30T23:32:03.420Z,63.4
2017-09-30T23:37:03.651Z,63.3
2017-09-30T23:42:03.304Z,63.4
2017-09-30T23:47:04.000Z,63.4
2017-09-30T23:52:03.721Z,63.4
2017-09-30T23:57:03.385Z,63.2
